createdAt,value
2019-01-23T00:02:12.914Z,52.87
2019-01-23T00:04:44.216Z,51.90
2019-01-23T00:07:15.432Z,51.57
2019-01-23T00:09:46.787Z,52.20
2019-01-23T00:12:18.106Z,56.87
2019-01-23T00:14:49.382Z,49.10
2019-01-23T00:17:20.701Z,51.63
2019-01-23T00:19:51.928Z,54.63
2019-01-23T00:22:23.210Z,57.93
2019-01-23T00:24:54.482Z,44.67
2019-01-23T00:27:25.829Z,50.27
2019-01-23T00:29:57.111Z,54.87
2019-01-23T00:32:28.569Z,52.57
2019-01-23T00:34:59.771Z,54.47
2019-01-23T00:37:31.031Z,58.57
2019-01-23T00:40:02.314Z,54.30
2019-01-23T00:42:33.540Z,51.60
2019-01-23T00:45:05.559Z,49.63
2019-01-23T00:47:36.976Z,50.87
2019-01-23T00:50:08.989Z,55.70
2019-01-23T00:52:40.244Z,46.10
2019-01-23T00:55:12.703Z,52.50
2019-01-23T00:57:43.994Z,50.43
2019-01-23T01:00:23.289Z,56.97
2019-01-23T01:02:54.800Z,53.13
2019-01-23T01:05:25.944Z,60.20
2019-01-23T01:07:57.153Z,58.03
2019-01-23T01:10:28.592Z,51.40
2019-01-23T01:12:59.908Z,48.07
2019-01-23T01:15:31.131Z,46.70
2019-01-23T01:18:02.381Z,52.37
2019-01-23T01:20:33.623Z,60.40
2019-01-23T01:23:05.013Z,55.97
2019-01-23T01:25:36.360Z,57.57
2019-01-23T01:28:07.653Z,48.97
2019-01-23T01:30:38.968Z,53.67
2019-01-23T01:33:10.238Z,50.93
2019-01-23T01:35:41.553Z,58.00
2019-01-23T01:38:12.827Z,46.43
2019-01-23T01:40:44.128Z,52.10
2019-01-23T01:43:15.375Z,54.30
2019-01-23T01:45:46.592Z,55.63
2019-01-23T01:48:17.874Z,54.27
2019-01-23T01:50:49.191Z,52.70
2019-01-23T01:53:20.597Z,51.37
2019-01-23T01:55:51.914Z,50.20
2019-01-23T01:58:23.259Z,58.47
2019-01-23T02:00:54.627Z,59.17
2019-01-23T02:03:25.958Z,52.40
2019-01-23T02:05:57.255Z,46.53
2019-01-23T02:08:28.516Z,49.13
2019-01-23T02:10:59.894Z,53.43
2019-01-23T02:13:31.107Z,55.37
2019-01-23T02:16:02.372Z,53.53
2019-01-23T02:18:33.697Z,58.30
2019-01-23T02:21:04.955Z,50.67
2019-01-23T02:23:36.125Z,50.83
2019-01-23T02:26:07.360Z,53.60
2019-01-23T02:28:38.799Z,59.47
2019-01-23T02:31:10.354Z,55.53
2019-01-23T02:33:41.539Z,48.20
2019-01-23T02:36:12.744Z,47.90
2019-01-23T02:38:44.007Z,44.13
2019-01-23T02:41:15.336Z,48.27
2019-01-23T02:43:46.652Z,55.43
2019-01-23T02:46:17.861Z,51.23
2019-01-23T02:48:49.165Z,42.97
2019-01-23T02:51:20.476Z,51.70
2019-01-23T02:53:51.773Z,44.87
2019-01-23T02:56:23.101Z,51.10
2019-01-23T02:58:54.333Z,40.97
2019-01-23T03:01:25.616Z,44.07
2019-01-23T03:03:56.920Z,51.30
2019-01-23T03:06:28.222Z,49.97
2019-01-23T03:08:59.568Z,56.27
2019-01-23T03:11:31.875Z,43.57
2019-01-23T03:14:03.131Z,52.13
2019-01-23T03:16:34.437Z,49.33
2019-01-23T03:19:05.921Z,47.67
2019-01-23T03:21:37.320Z,51.30
2019-01-23T03:24:08.865Z,48.63
2019-01-23T03:26:40.178Z,49.47
2019-01-23T03:29:11.447Z,53.07
2019-01-23T03:31:42.783Z,53.57
2019-01-23T03:34:13.987Z,50.07
2019-01-23T03:36:45.305Z,47.93
2019-01-23T03:39:16.538Z,47.87
2019-01-23T03:41:47.775Z,46.07
2019-01-23T03:44:19.317Z,49.80
2019-01-23T03:46:50.632Z,53.50
2019-01-23T03:49:21.892Z,48.87
2019-01-23T03:51:54.155Z,52.73
2019-01-23T03:54:25.461Z,48.97
2019-01-23T03:56:56.814Z,45.23
2019-01-23T03:59:32.178Z,46.77
2019-01-23T04:02:01.453Z,54.17
2019-01-23T04:04:32.707Z,56.90
2019-01-23T04:07:04.113Z,47.40
2019-01-23T04:09:35.408Z,58.83
2019-01-23T04:12:06.604Z,50.10
2019-01-23T04:14:37.976Z,48.30
2019-01-23T04:17:09.202Z,56.13
2019-01-23T04:19:40.382Z,47.80
2019-01-23T04:22:11.612Z,44.67
2019-01-23T04:24:42.951Z,52.07
2019-01-23T04:27:14.174Z,56.83
2019-01-23T04:29:45.459Z,49.30
2019-01-23T04:32:16.753Z,54.53
2019-01-23T04:34:48.000Z,57.80
2019-01-23T04:37:19.227Z,53.40
2019-01-23T04:39:50.538Z,54.63
2019-01-23T04:42:21.780Z,47.50
2019-01-23T04:44:53.143Z,58.03
2019-01-23T04:47:24.418Z,56.20
2019-01-23T04:49:55.820Z,55.20
2019-01-23T04:52:51.838Z,59.40
2019-01-23T04:55:23.104Z,57.60
2019-01-23T04:57:54.410Z,50.23
2019-01-23T05:00:27.051Z,60.33
2019-01-23T05:02:58.542Z,51.73
2019-01-23T05:05:29.826Z,59.40
2019-01-23T05:08:01.079Z,56.67
2019-01-23T05:10:32.341Z,55.27
2019-01-23T05:13:03.668Z,58.03
2019-01-23T05:15:34.942Z,50.23
2019-01-23T05:18:06.184Z,62.20
2019-01-23T05:20:37.552Z,53.87
2019-01-23T05:23:08.816Z,57.30
2019-01-23T05:25:40.366Z,62.10
2019-01-23T05:28:11.626Z,58.43
2019-01-23T05:30:42.849Z,54.77
2019-01-23T05:33:14.121Z,50.80
2019-01-23T05:35:45.470Z,62.27
2019-01-23T05:38:16.721Z,53.53
2019-01-23T05:40:47.955Z,60.30
2019-01-23T05:43:19.223Z,62.80
2019-01-23T05:45:50.491Z,56.00
2019-01-23T05:48:21.720Z,60.53
2019-01-23T05:50:52.935Z,55.03
2019-01-23T05:53:24.148Z,51.80
2019-01-23T05:55:55.341Z,67.87
2019-01-23T05:58:26.639Z,65.03
2019-01-23T06:00:57.862Z,59.77
2019-01-23T06:03:29.274Z,56.30
2019-01-23T06:06:00.552Z,61.80
2019-01-23T06:08:31.847Z,53.47
2019-01-23T06:11:03.138Z,70.27
2019-01-23T06:13:34.383Z,61.80
2019-01-23T06:16:05.549Z,63.70
2019-01-23T06:18:36.899Z,62.60
2019-01-23T06:21:08.137Z,67.23
2019-01-23T06:23:39.365Z,65.70
2019-01-23T06:26:10.629Z,61.67
2019-01-23T06:28:41.816Z,68.90
2019-01-23T06:31:13.075Z,62.60
2019-01-23T06:33:44.982Z,71.33
2019-01-23T06:36:16.427Z,70.13
2019-01-23T06:38:47.643Z,75.70
2019-01-23T06:41:18.930Z,75.23
2019-01-23T06:43:50.173Z,71.53
2019-01-23T06:46:21.370Z,81.03
2019-01-23T06:48:52.711Z,82.27
2019-01-23T06:51:23.932Z,75.83
2019-01-23T06:53:55.790Z,79.33
2019-01-23T06:56:27.033Z,76.97
2019-01-23T06:58:58.365Z,80.67
2019-01-23T07:01:29.549Z,74.13
2019-01-23T07:04:00.814Z,85.40
2019-01-23T07:06:32.000Z,70.67
2019-01-23T07:09:04.753Z,72.37
2019-01-23T07:11:35.929Z,75.70
2019-01-23T07:14:07.181Z,77.47
2019-01-23T07:16:38.424Z,73.70
2019-01-23T07:19:09.635Z,80.53
2019-01-23T07:21:40.851Z,77.80
2019-01-23T07:24:12.122Z,73.13
2019-01-23T07:26:43.441Z,68.50
2019-01-23T07:29:14.677Z,81.60
2019-01-23T07:31:45.866Z,77.30
2019-01-23T07:34:17.064Z,68.93
2019-01-23T07:36:48.331Z,71.23
2019-01-23T07:39:19.651Z,80.37
2019-01-23T07:41:50.937Z,74.80
2019-01-23T07:44:22.157Z,75.13
2019-01-23T07:46:53.566Z,74.73
2019-01-23T07:49:24.848Z,75.67
2019-01-23T07:51:56.330Z,80.03
2019-01-23T07:54:27.550Z,79.67
2019-01-23T07:56:58.770Z,81.53
2019-01-23T07:59:30.013Z,82.10
2019-01-23T08:02:01.247Z,75.53
2019-01-23T08:04:32.627Z,85.23
2019-01-23T08:07:03.830Z,83.50
2019-01-23T08:09:35.177Z,83.43
2019-01-23T08:12:10.672Z,87.87
2019-01-23T08:14:39.426Z,74.00
2019-01-23T08:17:10.544Z,84.57
2019-01-23T08:19:41.792Z,80.30
2019-01-23T08:22:13.095Z,80.07
2019-01-23T08:24:44.503Z,75.07
2019-01-23T08:27:15.849Z,74.33
2019-01-23T08:29:47.198Z,84.03
2019-01-23T08:32:18.479Z,86.70
2019-01-23T08:34:49.795Z,68.37
2019-01-23T08:37:21.116Z,88.83
2019-01-23T08:39:52.453Z,89.27
2019-01-23T08:42:23.761Z,80.37
2019-01-23T08:44:55.133Z,76.07
2019-01-23T08:47:26.520Z,79.50
2019-01-23T08:49:57.801Z,85.87
2019-01-23T08:52:29.126Z,94.00
2019-01-23T08:55:00.442Z,85.07
2019-01-23T08:57:32.010Z,93.00
2019-01-23T09:00:03.368Z,86.43
2019-01-23T09:02:34.539Z,83.30
2019-01-23T09:05:07.029Z,83.00
2019-01-23T09:07:38.480Z,88.10
2019-01-23T09:10:13.482Z,89.57
2019-01-23T09:12:44.902Z,77.63
2019-01-23T09:15:16.617Z,85.23
2019-01-23T09:17:47.918Z,75.07
2019-01-23T09:20:19.306Z,82.90
2019-01-23T09:22:50.678Z,92.77
2019-01-23T09:25:23.448Z,89.70
2019-01-23T09:27:54.733Z,102.43
2019-01-23T09:30:34.943Z,88.57
2019-01-23T09:33:38.710Z,89.60
2019-01-23T09:36:59.883Z,89.67
2019-01-23T09:40:11.910Z,73.13
2019-01-23T09:43:14.769Z,74.70
2019-01-23T09:46:25.897Z,82.87
2019-01-23T09:49:12.943Z,81.77
2019-01-23T09:52:36.444Z,86.93
2019-01-23T09:55:09.608Z,83.70
2019-01-23T09:57:50.969Z,102.40
2019-01-23T10:00:27.643Z,88.83
2019-01-23T10:02:59.050Z,92.53
2019-01-23T10:05:30.279Z,86.43
2019-01-23T10:08:01.530Z,85.93
2019-01-23T10:10:33.247Z,88.10
2019-01-23T10:13:05.491Z,95.23
2019-01-23T10:16:05.559Z,91.27
2019-01-23T10:18:36.754Z,94.40
2019-01-23T10:21:08.031Z,92.97
2019-01-23T10:23:40.396Z,90.97
2019-01-23T10:26:11.602Z,89.47
2019-01-23T10:28:42.901Z,106.20
2019-01-23T10:31:14.274Z,90.43
2019-01-23T10:33:45.600Z,89.97
2019-01-23T10:36:17.005Z,80.17
2019-01-23T10:38:48.217Z,86.57
2019-01-23T10:41:19.577Z,90.20
2019-01-23T10:43:50.927Z,101.43
2019-01-23T10:46:22.273Z,95.97
2019-01-23T10:48:53.465Z,91.90
2019-01-23T10:51:24.926Z,88.57
2019-01-23T10:53:56.310Z,89.03
2019-01-23T10:56:27.543Z,92.43
2019-01-23T10:58:58.897Z,96.33
2019-01-23T11:01:30.063Z,95.00
2019-01-23T11:04:01.315Z,94.60
2019-01-23T11:06:32.513Z,100.17
2019-01-23T11:09:05.425Z,101.83
2019-01-23T11:11:36.879Z,91.03
2019-01-23T11:14:08.272Z,90.73
2019-01-23T11:16:39.586Z,93.13
2019-01-23T11:19:10.775Z,90.43
2019-01-23T11:21:44.476Z,86.07
2019-01-23T11:24:15.745Z,92.90
2019-01-23T11:26:47.093Z,94.47
2019-01-23T11:29:19.363Z,90.93
2019-01-23T11:31:50.818Z,90.03
2019-01-23T11:34:22.091Z,98.77
2019-01-23T11:36:53.388Z,97.80
2019-01-23T11:39:24.701Z,87.20
2019-01-23T11:41:56.083Z,103.57
2019-01-23T11:44:27.409Z,89.00
2019-01-23T11:46:58.627Z,102.23
2019-01-23T11:49:29.846Z,85.23
2019-01-23T11:52:01.136Z,87.53
2019-01-23T11:54:32.516Z,101.60
2019-01-23T11:57:03.692Z,105.13
2019-01-23T11:59:35.088Z,89.73
2019-01-23T12:02:06.473Z,90.20
2019-01-23T12:04:37.647Z,86.80
2019-01-23T12:07:08.924Z,91.67
2019-01-23T12:09:40.111Z,91.63
2019-01-23T12:12:11.449Z,95.60
2019-01-23T12:14:42.658Z,97.53
2019-01-23T12:17:13.929Z,90.57
2019-01-23T12:19:45.154Z,96.03
2019-01-23T12:22:16.478Z,88.13
2019-01-23T12:24:47.765Z,93.00
2019-01-23T12:27:18.940Z,85.93
2019-01-23T12:29:50.201Z,88.10
2019-01-23T12:32:21.466Z,74.67
2019-01-23T12:34:52.689Z,85.53
2019-01-23T12:37:23.991Z,85.50
2019-01-23T12:39:55.398Z,88.27
2019-01-23T12:42:26.697Z,92.03
2019-01-23T12:44:57.882Z,94.97
2019-01-23T12:47:29.152Z,84.93
2019-01-23T12:50:01.113Z,97.00
2019-01-23T12:52:32.748Z,87.27
2019-01-23T12:55:05.020Z,96.67
2019-01-23T12:57:36.289Z,84.50
2019-01-23T13:00:10.685Z,93.90
2019-01-23T13:02:42.346Z,92.90
2019-01-23T13:05:14.868Z,87.37
2019-01-23T13:07:46.355Z,101.40
2019-01-23T13:10:18.768Z,93.80
2019-01-23T13:12:50.144Z,93.33
2019-01-23T13:15:23.284Z,93.30
2019-01-23T13:17:54.931Z,91.60
2019-01-23T13:20:26.449Z,90.67
2019-01-23T13:22:57.684Z,97.27
2019-01-23T13:25:29.721Z,87.70
2019-01-23T13:28:02.309Z,99.90
2019-01-23T13:30:33.610Z,98.43
2019-01-23T13:33:04.773Z,99.90
2019-01-23T13:35:38.175Z,112.27
2019-01-23T13:38:15.519Z,105.60
2019-01-23T13:40:46.805Z,118.30
2019-01-23T13:43:18.158Z,105.40
2019-01-23T13:45:49.437Z,98.90
2019-01-23T13:48:20.748Z,110.20
2019-01-23T13:50:52.107Z,101.90
2019-01-23T13:53:23.410Z,113.77
2019-01-23T13:55:54.800Z,112.03
2019-01-23T13:58:26.333Z,117.17
2019-01-23T14:00:57.850Z,120.93
2019-01-23T14:03:29.191Z,104.30
2019-01-23T14:06:00.574Z,116.17
2019-01-23T14:08:31.855Z,123.03
2019-01-23T14:11:03.148Z,123.13
2019-01-23T14:13:34.454Z,123.37
2019-01-23T14:16:06.119Z,124.00
2019-01-23T14:18:37.502Z,114.77
2019-01-23T14:21:08.911Z,131.43
2019-01-23T14:23:40.418Z,129.00
2019-01-23T14:26:11.825Z,122.30
2019-01-23T14:28:43.119Z,131.03
2019-01-23T14:31:14.486Z,123.80
2019-01-23T14:33:46.124Z,126.60
2019-01-23T14:36:17.525Z,120.53
2019-01-23T14:38:48.983Z,116.33
2019-01-23T14:41:20.218Z,132.57
2019-01-23T14:43:51.466Z,132.03
2019-01-23T14:46:23.506Z,136.93
2019-01-23T14:48:55.093Z,122.50
2019-01-23T14:51:26.488Z,139.00
2019-01-23T14:53:57.753Z,126.23
2019-01-23T14:56:28.993Z,123.53
2019-01-23T14:59:01.122Z,117.43
2019-01-23T15:01:32.579Z,145.20
2019-01-23T15:04:03.789Z,127.33
2019-01-23T15:06:35.246Z,129.03
2019-01-23T15:09:08.291Z,131.70
2019-01-23T15:11:39.604Z,131.70
2019-01-23T15:14:10.891Z,137.73
2019-01-23T15:16:42.267Z,130.87
2019-01-23T15:19:13.656Z,116.40
2019-01-23T15:21:45.046Z,123.90
2019-01-23T15:24:16.311Z,141.40
2019-01-23T15:26:47.686Z,122.27
2019-01-23T15:29:18.971Z,133.13
2019-01-23T15:31:50.246Z,129.07
2019-01-23T15:34:21.504Z,119.97
2019-01-23T15:36:52.886Z,147.67
2019-01-23T15:39:24.185Z,121.63
2019-01-23T15:41:55.528Z,135.47
2019-01-23T15:44:27.082Z,131.00
2019-01-23T15:46:58.422Z,143.37
2019-01-23T15:49:29.641Z,133.43
2019-01-23T15:52:00.929Z,146.23
2019-01-23T15:54:32.379Z,138.00
2019-01-23T15:57:03.799Z,135.93
2019-01-23T15:59:35.056Z,135.80
2019-01-23T16:02:06.467Z,139.73
2019-01-23T16:04:37.673Z,139.17
2019-01-23T16:07:09.009Z,151.23
2019-01-23T16:09:41.291Z,150.60
2019-01-23T16:12:12.588Z,149.20
2019-01-23T16:14:44.379Z,149.47
2019-01-23T16:17:15.820Z,157.63
2019-01-23T16:19:47.370Z,141.30
2019-01-23T16:22:18.683Z,153.90
2019-01-23T16:24:49.891Z,150.53
2019-01-23T16:27:21.658Z,154.10
2019-01-23T16:29:52.860Z,148.43
2019-01-23T16:32:31.283Z,157.03
2019-01-23T16:34:57.774Z,129.13
2019-01-23T16:37:28.978Z,140.50
2019-01-23T16:40:00.513Z,155.73
2019-01-23T16:42:32.231Z,159.97
2019-01-23T16:45:03.824Z,150.97
2019-01-23T16:47:35.290Z,151.27
2019-01-23T16:50:10.530Z,159.87
2019-01-23T16:52:43.122Z,123.97
2019-01-23T16:55:15.413Z,148.67
2019-01-23T16:57:48.847Z,152.60
2019-01-23T17:00:22.770Z,152.73
2019-01-23T17:02:54.078Z,149.73
2019-01-23T17:05:27.647Z,140.33
2019-01-23T17:08:00.448Z,152.80
2019-01-23T17:10:35.252Z,150.97
2019-01-23T17:13:06.541Z,133.40
2019-01-23T17:15:38.735Z,138.77
2019-01-23T17:18:09.930Z,135.90
2019-01-23T17:20:44.236Z,147.33
2019-01-23T17:23:15.845Z,134.87
2019-01-23T17:25:48.036Z,129.87
2019-01-23T17:28:19.446Z,144.97
2019-01-23T17:30:51.774Z,150.33
2019-01-23T17:33:23.865Z,139.23
2019-01-23T17:35:55.716Z,128.53
2019-01-23T17:38:30.722Z,135.77
2019-01-23T17:41:02.429Z,137.50
2019-01-23T17:43:34.926Z,145.07
2019-01-23T17:46:06.619Z,145.83
2019-01-23T17:48:38.005Z,147.93
2019-01-23T17:51:09.297Z,142.07
2019-01-23T17:53:40.587Z,136.03
2019-01-23T17:56:11.845Z,148.57
2019-01-23T17:58:43.133Z,143.97
2019-01-23T18:01:14.558Z,138.93
2019-01-23T18:03:45.750Z,134.13
2019-01-23T18:06:17.065Z,155.20
2019-01-23T18:08:48.450Z,152.53
2019-01-23T18:11:19.800Z,137.37
2019-01-23T18:13:51.271Z,123.03
2019-01-23T18:16:22.546Z,126.93
2019-01-23T18:18:53.793Z,146.00
2019-01-23T18:21:25.105Z,130.70
2019-01-23T18:23:56.545Z,132.47
2019-01-23T18:26:28.128Z,129.73
2019-01-23T18:29:00.762Z,93.97
2019-01-23T18:31:52.792Z,86.03
2019-01-23T18:34:57.924Z,99.20
2019-01-23T18:38:09.034Z,104.67
2019-01-23T18:41:18.784Z,95.63
2019-01-23T18:44:24.333Z,81.03
2019-01-23T18:47:18.426Z,89.03
2019-01-23T18:50:14.269Z,96.00
2019-01-23T18:52:45.691Z,104.53
2019-01-23T18:55:18.538Z,93.37
2019-01-23T18:57:50.027Z,88.93
2019-01-23T19:00:21.891Z,92.30
2019-01-23T19:02:53.385Z,65.60
2019-01-23T19:05:25.779Z,84.57
2019-01-23T19:07:58.623Z,86.07
2019-01-23T19:10:30.441Z,83.53
2019-01-23T19:13:06.867Z,78.57
2019-01-23T19:15:59.387Z,72.17
2019-01-23T19:18:30.764Z,68.07
2019-01-23T19:21:08.279Z,67.90
2019-01-23T19:23:41.853Z,53.90
2019-01-23T19:26:46.302Z,60.63
2019-01-23T19:29:25.318Z,60.03
2019-01-23T19:31:57.931Z,62.17
2019-01-23T19:34:29.431Z,61.07
2019-01-23T19:37:00.824Z,55.03
2019-01-23T19:39:36.423Z,55.23
2019-01-23T19:42:13.373Z,62.63
2019-01-23T19:44:46.648Z,56.57
2019-01-23T19:47:20.222Z,55.60
2019-01-23T19:49:52.107Z,56.87
2019-01-23T19:52:23.411Z,59.53
2019-01-23T19:55:30.494Z,57.47
2019-01-23T19:58:06.281Z,52.37
2019-01-23T20:01:23.350Z,53.73
2019-01-23T20:04:02.574Z,38.97
2019-01-23T20:06:41.754Z,55.17
2019-01-23T20:09:22.047Z,45.23
2019-01-23T20:12:01.230Z,58.77
2019-01-23T20:14:38.323Z,52.93
2019-01-23T20:17:10.679Z,51.37
2019-01-23T20:19:49.805Z,55.63
2019-01-23T20:22:27.889Z,44.50
2019-01-23T20:25:02.062Z,39.90
2019-01-23T20:27:36.672Z,40.10
2019-01-23T20:30:18.047Z,37.93
2019-01-23T20:33:08.898Z,44.63
2019-01-23T20:35:40.547Z,41.40
2019-01-23T20:38:23.652Z,50.23
2019-01-23T20:41:02.400Z,43.60
2019-01-23T20:43:47.024Z,47.33
2019-01-23T20:47:28.255Z,49.23
2019-01-23T20:49:17.396Z,44.33
2019-01-23T20:51:55.380Z,52.03
2019-01-23T20:54:30.100Z,52.27
2019-01-23T20:57:03.895Z,43.40
2019-01-23T20:59:36.902Z,49.83
2019-01-23T21:02:33.954Z,38.87
2019-01-23T21:05:12.563Z,50.67
2019-01-23T21:07:44.280Z,52.67
2019-01-23T21:10:16.601Z,34.97
2019-01-23T21:12:48.728Z,44.77
2019-01-23T21:15:31.859Z,47.30
2019-01-23T21:18:04.100Z,47.20
2019-01-23T21:20:37.570Z,39.67
2019-01-23T21:23:10.222Z,46.70
2019-01-23T21:25:41.389Z,51.73
2019-01-23T21:28:12.788Z,41.27
2019-01-23T21:30:44.035Z,45.03
2019-01-23T21:33:15.498Z,38.87
2019-01-23T21:35:46.939Z,48.27
2019-01-23T21:38:18.149Z,55.07
2019-01-23T21:40:49.410Z,45.33
2019-01-23T21:43:21.735Z,49.53
2019-01-23T21:45:53.171Z,48.10
2019-01-23T21:48:24.473Z,45.80
2019-01-23T21:50:55.881Z,45.40
2019-01-23T21:53:27.158Z,48.83
2019-01-23T21:55:58.475Z,57.90
2019-01-23T21:58:29.679Z,38.27
2019-01-23T22:01:01.739Z,45.60
2019-01-23T22:03:33.320Z,42.60
2019-01-23T22:06:04.866Z,43.37
2019-01-23T22:08:36.053Z,44.17
2019-01-23T22:11:07.419Z,47.60
2019-01-23T22:13:41.635Z,47.00
2019-01-23T22:16:12.918Z,47.23
2019-01-23T22:18:44.346Z,44.60
2019-01-23T22:21:15.556Z,42.53
2019-01-23T22:23:47.184Z,43.60
2019-01-23T22:26:18.681Z,49.73
2019-01-23T22:28:50.060Z,49.97
2019-01-23T22:31:21.316Z,40.63
2019-01-23T22:33:56.384Z,39.53
2019-01-23T22:36:25.669Z,46.40
2019-01-23T22:38:56.904Z,43.33
2019-01-23T22:41:28.318Z,42.90
2019-01-23T22:43:59.519Z,40.23
2019-01-23T22:46:30.782Z,41.23
2019-01-23T22:49:02.084Z,45.20
2019-01-23T22:51:33.338Z,47.40
2019-01-23T22:54:04.610Z,38.17
2019-01-23T22:56:35.823Z,43.17
2019-01-23T22:59:07.191Z,38.97
2019-01-23T23:01:38.345Z,39.63
2019-01-23T23:04:09.603Z,39.87
2019-01-23T23:06:40.923Z,44.63
2019-01-23T23:09:12.259Z,40.27
2019-01-23T23:11:43.473Z,39.63
2019-01-23T23:14:14.831Z,43.87
2019-01-23T23:16:46.156Z,40.77
2019-01-23T23:19:17.444Z,46.70
2019-01-23T23:21:48.658Z,46.50
2019-01-23T23:24:20.010Z,46.47
2019-01-23T23:26:51.541Z,41.13
2019-01-23T23:29:22.785Z,44.87
2019-01-23T23:31:54.227Z,37.80
2019-01-23T23:34:25.488Z,46.20
2019-01-23T23:36:56.680Z,43.83
2019-01-23T23:39:29.701Z,49.73
2019-01-23T23:42:02.430Z,52.67
2019-01-23T23:44:33.677Z,48.57
2019-01-23T23:47:08.137Z,45.17
2019-01-23T23:49:39.991Z,43.43
2019-01-23T23:52:11.376Z,42.97
2019-01-23T23:54:42.693Z,38.63
2019-01-23T23:57:16.256Z,50.47
2019-01-23T23:59:47.700Z,45.60
